NCAR-RAP Real-Time Weather Data

Output produced by METARs form (08 May 2021  16:23 UTC)
found at http://weather.rap.ucar.edu/surface/
 
KDEN 081553Z 33004KT 10SM FEW150 BKN220 19/03 A2974 RMK AO2 SLP999 T01940028
KDEN 081453Z VRB04KT 10SM FEW150 BKN220 17/04 A2975 RMK AO2 SLP005 T01720044 50010
KDEN 081353Z 01006KT 10SM FEW150 BKN220 14/06 A2975 RMK AO2 SLP009 T01440061
KDEN 081253Z 30008KT 10SM FEW180 BKN220 13/03 A2974 RMK AO2 SLP000 T01280033
KDEN 081153Z 26009KT 10SM FEW180 BKN250 13/02 A2971 RMK AO2 SLP987 T01280017 10172 20128 55005
KDEN 081053Z 26010KT 10SM FEW180 BKN250 14/02 A2971 RMK AO2 WSHFT 1027 SLP979 T01440017
KDEN 080953Z 21015KT 10SM FEW180 BKN250 16/01 A2971 RMK AO2 SLP974 T01610011
KDEN 080853Z 23009KT 10SM FEW160 SCT220 16/02 A2973 RMK AO2 SLP981 T01560022 56013
KDEN 080753Z 25010KT 10SM FEW160 SCT220 16/02 A2974 RMK AO2 SLP985 T01610022
KDEN 080653Z 20014G25KT 10SM FEW160 17/02 A2975 RMK AO2 PK WND 20026/0625 SLP990 T01720022 403000067
KDEN 080553Z 19018KT 10SM FEW160 18/02 A2977 RMK AO2 PK WND 19028/0535 SLP999 T01780017 10261 20167 58009
KDEN 080453Z 18018KT 10SM FEW140 17/02 A2979 RMK AO2 SLP005 T01720017
KDEN 080353Z 17014KT 10SM FEW100 SCT140 18/03 A2981 RMK AO2 SLP018 T01780028
KDEN 080253Z 18012KT 10SM FEW100 FEW140 SCT220 18/03 A2980 RMK AO2 SLP023 T01780028 56014
KDEN 080153Z 16009KT 10SM FEW100 SCT140 SCT220 20/03 A2981 RMK AO2 SLP026 T02000028
KDEN 080053Z 17006KT 10SM SCT100 SCT140 BKN220 25/01 A2983 RMK AO2 PK WND 20026/2357 SLP033 T02500011
KDEN 072353Z 19012KT 10SM FEW100 BKN140 BKN220 26/M01 A2985 RMK AO2 SLP044 VIRGA OHD T02561006 10300 20256 55015
KDEN 072253Z 16017G22KT 10SM FEW100 SCT140 BKN220 28/M02 A2985 RMK AO2 PK WND 17027/2223 SLP039 T02781022
KDEN 072153Z 21020G25KT 10SM SCT100 SCT140 BKN220 29/M02 A2987 RMK AO2 WSHFT 2116 SLP046 T02891022
KDEN 072136Z 22008G24KT 10SM SCT100 SCT140 BKN220 28/M04 A2988 RMK AO2 WSHFT 2116 T02831044
KDEN 072107Z 22017G23KT 10SM SCT100 SCT140 BKN220 29/M04 A2990 RMK AO2 WSHFT 2047 T02891044
KDEN 072053Z 24013G20KT 10SM SCT100 SCT140 BKN220 29/M05 A2990 RMK AO2 SLP054 T02941050 56022
KDEN 071953Z 18005KT 10SM SCT100 BKN220 29/M06 A2991 RMK AO2 SLP054 T02941056
KDEN 071853Z 12008KT 10SM FEW100 SCT220 28/M07 A2994 RMK AO2 SLP066 T02781072
KDEN 071753Z 17005KT 10SM FEW100 SCT220 27/M06 A2998 RMK AO2 SLP079 T02671061 10272 20083 58016
KDEN 071653Z 21005KT 10SM FEW100 FEW220 26/M03 A3001 RMK AO2 SLP093 T02561028
KDEN 071553Z 24009KT 10SM FEW130 FEW220 23/00 A3002 RMK AO2 SLP099 T02280000
KDEN 071453Z 24013KT 10SM FEW130 FEW220 19/02 A3004 RMK AO2 SLP108 T01890022 58005
KDEN 071353Z 24010KT 10SM FEW150 FEW220 15/02 A3004 RMK AO2 SLP113 T01500022
KDEN 071253Z 23012KT 10SM FEW150 FEW220 11/02 A3005 RMK AO2 SLP118 T01110022
KDEN 071153Z 23009KT 10SM FEW200 08/03 A3005 RMK AO2 SLP121 T00830028 10122 20067 56009
KDEN 071053Z 22010KT 10SM FEW200 09/04 A3005 RMK AO2 SLP119 T00940039
KDEN 070953Z 23005KT 10SM FEW200 09/04 A3007 RMK AO2 SLP128 T00890039
KDEN 070853Z 23007KT 10SM CLR 09/04 A3009 RMK AO2 SLP134 T00940044 58017
KDEN 070753Z 22007KT 10SM CLR 12/04 A3011 RMK AO2 SLP141 T01170044
KDEN 070653Z 22007KT 10SM CLR 11/04 A3013 RMK AO2 SLP154 T01110039 402280028
KDEN 070553Z 23008KT 10SM CLR 12/04 A3014 RMK AO2 SLP160 T01220039 10222 20111 58003
KDEN 070453Z 21010KT 10SM CLR 12/05 A3015 RMK AO2 SLP169 T01170050
KDEN 070353Z 14006KT 10SM FEW110 13/04 A3016 RMK AO2 SLP173 T01330039
KDEN 070253Z 02006KT 10SM FEW130 15/05 A3016 RMK AO2 SLP175 T01500050 53002
KDEN 070153Z 04005KT 10SM FEW080 17/05 A3014 RMK AO2 SLP171 T01720050
KDEN 070053Z 07008KT 10SM FEW080 FEW110 21/03 A3014 RMK AO2 SLP165 T02060033
KDEN 062353Z 07013KT 10SM FEW090 FEW130 22/03 A3015 RMK AO2 SLP166 T02220033 10228 20144 56019
KDEN 062253Z 11008G16KT 10SM FEW090 23/01 A3017 RMK AO2 SLP169 T02280011
KDEN 062212Z 11007KT 070V150 10SM FEW090 22/02 A3018 RMK AO2 T02220017
KDEN 062153Z 12009G22KT 10SM FEW090 22/02 A3019 RMK AO2 SLP182 T02170022
KDEN 062053Z 09009KT 10SM FEW090 21/04 A3022 RMK AO2 SLP189 T02060044 58026
KDEN 061953Z 08007KT 10SM FEW090 18/06 A3025 RMK AO2 SLP204 T01830056
KDEN 061853Z 03003KT 10SM CLR 16/06 A3028 RMK AO2 SLP220 T01610056
KDEN 061753Z 00000KT 10SM CLR 15/04 A3031 RMK AO2 SLP230 T01500044 10150 20028 58016
KDEN 061653Z 00000KT 10SM CLR 13/04 A3033 RMK AO2 SLP238 T01280039